This is the latest recevied weather packets stored in our database for station/object N4ZIQ. If no packets are shown the sender has not sent any weather packets the latest 10 day(s).
| Time | Temp. | Humidity | Pressure | Rain* | Wind** | Luminosity | Snow |
|---|---|---|---|---|---|---|---|
| 1777475444 | 27.78° C | 65% | 1018.2 hPa | 0 mm | - | 754 W/m² | - |
| 1777475146 | 26.67° C | 68% | 1018.1 hPa | 0 mm | - | 738 W/m² | - |
| 1777474855 | 27.22° C | 66% | 1018.2 hPa | 0 mm | - | 696 W/m² | - |
| 1777474543 | 26.67° C | 70% | 1018.2 hPa | 0 mm | - | 689 W/m² | - |
| 1777474244 | 26.67° C | 71% | 1018.3 hPa | 0 mm | - | 643 W/m² | - |
| 1777473963 | 26.67° C | 70% | 1018.2 hPa | 0 mm | - | 735 W/m² | - |
| 1777473643 | 26.11° C | 72% | 1018.4 hPa | 0 mm | - | 575 W/m² | - |
| 1777473343 | 26.11° C | 73% | 1018.2 hPa | 0 mm | - | 591 W/m² | - |
| 1777473052 | 26.11° C | 72% | 1018.3 hPa | 0 mm | - | 568 W/m² | - |
| 1777472743 | 26.11° C | 73% | 1018.3 hPa | 0 mm | - | 550 W/m² | - |
| 1777472444 | 25.56° C | 72% | 1018.5 hPa | 0 mm | - | 526 W/m² | - |
| 1777472151 | 25.56° C | 72% | 1018.7 hPa | 0 mm | - | 397 W/m² | - |
| 1777471842 | 25.56° C | 71% | 1018.8 hPa | 0 mm | - | 401 W/m² | - |
| 1777471543 | 25.56° C | 77% | 1018.7 hPa | 0 mm | - | 406 W/m² | - |
| 1777471251 | 25° C | 78% | 1018.5 hPa | 0 mm | - | 287 W/m² | - |
| 1777470944 | 25° C | 77% | 1018.3 hPa | 0 mm | - | 536 W/m² | - |
| 1777470645 | 25° C | 79% | 1018.2 hPa | 0 mm | - | 603 W/m² | - |
| 1777470359 | 25° C | 78% | 1018.1 hPa | 0 mm | - | 550 W/m² | - |
| 1777470044 | 25° C | 82% | 1018.1 hPa | 0 mm | - | 515 W/m² | - |
| 1777469743 | 23.89° C | 83% | 1018.1 hPa | 0 mm | - | 504 W/m² | - |
| 1777469459 | 23.89° C | 82% | 1018.3 hPa | 0 mm | - | 478 W/m² | - |
| 1777469145 | 23.33° C | 84% | 1018.5 hPa | 0 mm | - | 450 W/m² | - |
| 1777468845 | 23.33° C | 87% | 1018.6 hPa | 0 mm | - | 406 W/m² | - |
| 1777468551 | 22.78° C | 89% | 1018.5 hPa | 0 mm | - | 413 W/m² | - |
| 1777468243 | 22.78° C | 91% | 1018.5 hPa | 0 mm | - | 431 W/m² | - |
* Rain latest hour (hover to see other rain measurements)
** Current wind speed in m/s (hover to see current wind gust speed)